Time;durP1;ratioP1;P1;durP2;ratioP2;P2;SDS_P1;SDS_P2;PMS_P1;PMS_P2;Temp;Humidity;BMP_temperature;BMP_pressure;BME280_temperature;BME280_humidity;BME280_pressure;Samples;Min_cycle;Max_cycle;Signal;HPM_P1;HPM_P2
2022/04/13 00:00:41;;;;;;;9.60;4.78;;;;;;;9.14;100.00;96326.91;5036196;28;20037;-69
2022/04/13 00:03:07;;;;;;;10.23;5.65;;;;;;;9.04;100.00;96328.34;5025482;28;20045;-69
2022/04/13 00:05:32;;;;;;;9.38;4.55;;;;;;;9.22;100.00;96316.88;5030251;28;20052;-67
2022/04/13 00:07:58;;;;;;;10.95;5.20;;;;;;;9.33;100.00;96318.63;5038769;28;20103;-65
2022/04/13 00:10:23;;;;;;;8.43;4.82;;;;;;;9.43;100.00;96314.47;5033163;28;20044;-67
2022/04/13 00:12:49;;;;;;;9.20;4.97;;;;;;;9.59;100.00;96316.25;5038696;28;20029;-66
2022/04/13 00:15:14;;;;;;;9.75;5.22;;;;;;;9.77;100.00;96314.53;5027097;28;20083;-65
2022/04/13 00:17:40;;;;;;;9.27;5.30;;;;;;;9.75;100.00;96322.34;5038216;28;20041;-66
2022/04/13 00:20:07;;;;;;;10.52;5.10;;;;;;;9.75;100.00;96325.84;5015760;28;20040;-68
2022/04/13 00:22:32;;;;;;;10.18;5.22;;;;;;;9.74;100.00;96312.53;5038213;28;20118;-67
2022/04/13 00:24:58;;;;;;;10.68;5.43;;;;;;;9.72;100.00;96323.06;5038422;28;20029;-67
2022/04/13 00:27:23;;;;;;;12.93;5.50;;;;;;;9.61;100.00;96317.44;5014409;28;20581;-65
2022/04/13 00:29:49;;;;;;;14.32;6.22;;;;;;;9.25;100.00;96322.41;5020307;28;20033;-66
2022/04/13 00:32:14;;;;;;;7.47;4.82;;;;;;;9.23;100.00;96323.94;5043462;28;20432;-67
2022/04/13 00:34:41;;;;;;;7.28;4.80;;;;;;;9.37;100.00;96314.00;5058612;28;20045;-66
2022/04/13 00:37:06;;;;;;;9.73;5.18;;;;;;;9.61;100.00;96314.72;5034493;28;20032;-65
2022/04/13 00:39:32;;;;;;;9.65;5.35;;;;;;;9.70;100.00;96317.19;5058507;28;20097;-65
2022/04/13 00:42:07;;;;;;;9.23;5.43;;;;;;;9.89;100.00;96319.78;5058904;28;20044;-68
2022/04/13 00:44:34;;;;;;;10.77;5.00;;;;;;;10.03;100.00;96315.63;5043763;28;20037;-66
2022/04/13 00:47:07;;;;;;;12.07;4.97;;;;;;;10.10;100.00;96315.72;5078439;28;20048;-66
2022/04/13 00:49:34;;;;;;;13.13;5.95;;;;;;;10.06;100.00;96317.63;5081813;28;20047;-67
2022/04/13 00:52:03;;;;;;;9.02;5.05;;;;;;;10.02;100.00;96316.81;5072305;28;20055;-65
2022/04/13 00:54:30;;;;;;;12.38;5.43;;;;;;;9.97;100.00;96315.19;5040601;28;20049;-66
2022/04/13 00:56:56;;;;;;;6.82;4.45;;;;;;;9.90;100.00;96312.34;5041370;28;20041;-66
2022/04/13 00:59:24;;;;;;;9.50;5.28;;;;;;;9.82;100.00;96316.19;5036696;28;20417;-67
2022/04/13 01:01:53;;;;;;;8.48;4.70;;;;;;;9.71;100.00;96324.25;5039983;28;20075;-67
2022/04/13 01:04:19;;;;;;;9.13;5.10;;;;;;;9.56;100.00;96315.84;5037151;28;20041;-66
2022/04/13 01:06:45;;;;;;;8.18;4.82;;;;;;;9.46;100.00;96324.66;5041043;28;20048;-67
2022/04/13 01:09:12;;;;;;;7.93;5.05;;;;;;;9.36;100.00;96328.84;5036844;28;20037;-67
2022/04/13 01:11:38;;;;;;;8.95;5.07;;;;;;;9.27;100.00;96331.00;5042500;28;20075;-66
2022/04/13 01:14:04;;;;;;;11.90;5.72;;;;;;;9.22;100.00;96336.81;5038856;28;20414;-66
2022/04/13 01:16:29;;;;;;;9.93;5.07;;;;;;;9.17;100.00;96337.91;5040620;28;20044;-66
2022/04/13 01:19:06;;;;;;;9.38;5.03;;;;;;;9.25;100.00;96344.25;5042705;28;20052;-66
2022/04/13 01:21:45;;;;;;;6.40;4.90;;;;;;;9.29;100.00;96336.91;5025520;28;20056;-67
2022/04/13 01:24:15;;;;;;;9.05;5.70;;;;;;;9.30;100.00;96345.91;5041420;28;20041;-67
2022/04/13 01:26:47;;;;;;;8.00;4.95;;;;;;;9.28;100.00;96354.47;5026662;28;20114;-66
2022/04/13 01:29:13;;;;;;;8.60;5.25;;;;;;;9.32;100.00;96357.25;5036764;28;20041;-71
2022/04/13 01:31:40;;;;;;;7.22;4.72;;;;;;;9.42;100.00;96356.63;5042462;28;20390;-66
2022/04/13 01:34:06;;;;;;;8.60;5.18;;;;;;;9.49;100.00;96348.53;5059382;28;20044;-69
2022/04/13 01:36:36;;;;;;;8.68;4.75;;;;;;;9.43;100.00;96350.00;5061548;28;20068;-66
2022/04/13 01:39:02;;;;;;;;;;;;;;;9.08;100.00;96356.50;5058274;28;20052;-68
2022/04/13 01:41:28;;;;;;;9.63;4.65;;;;;;;9.03;100.00;96348.59;5032672;28;19924;-65
2022/04/13 01:43:53;;;;;;;10.55;4.72;;;;;;;9.12;100.00;96351.09;5023654;28;20052;-64
2022/04/13 01:46:19;;;;;;;8.80;4.80;;;;;;;9.18;100.00;96349.59;5035879;28;20044;-65
2022/04/13 01:48:44;;;;;;;7.78;4.40;;;;;;;9.23;100.00;96352.03;5041713;28;20057;-65
2022/04/13 01:51:10;;;;;;;7.80;5.00;;;;;;;9.27;100.00;96358.34;5037876;28;20084;-66
2022/04/13 01:53:35;;;;;;;12.52;5.47;;;;;;;9.26;100.00;96364.19;5048523;28;20140;-66
2022/04/13 01:56:01;;;;;;;7.65;5.20;;;;;;;9.08;100.00;96369.38;5029463;28;20128;-65
2022/04/13 01:58:27;;;;;;;11.65;5.50;;;;;;;9.03;100.00;96369.66;5018318;28;20053;-65
2022/04/13 02:00:56;;;;;;;8.50;5.18;;;;;;;8.98;100.00;96376.22;5040134;28;20037;-65
2022/04/13 02:03:23;;;;;;;8.80;5.38;;;;;;;8.98;100.00;96377.03;5035250;28;20053;-66
2022/04/13 02:05:50;;;;;;;11.00;6.00;;;;;;;8.83;100.00;96374.41;5039500;28;20135;-66
2022/04/13 02:08:15;;;;;;;12.23;6.68;;;;;;;8.46;100.00;96372.13;5035566;28;20069;-67
2022/04/13 02:10:41;;;;;;;15.18;6.07;;;;;;;8.39;100.00;96370.03;5040353;28;20044;-66
2022/04/13 02:13:07;;;;;;;12.40;6.07;;;;;;;8.45;100.00;96374.09;5035176;28;20079;-66
2022/04/13 02:15:32;;;;;;;8.05;5.32;;;;;;;8.63;100.00;96366.25;5039498;28;20493;-67
2022/04/13 02:17:57;;;;;;;10.63;5.20;;;;;;;8.70;100.00;96369.09;5024555;28;20053;-65
2022/04/13 02:20:23;;;;;;;8.77;5.45;;;;;;;8.77;100.00;96376.63;5020773;28;20122;-68
2022/04/13 02:22:48;;;;;;;8.90;5.68;;;;;;;8.75;100.00;96371.53;5022824;28;20044;-68
2022/04/13 02:25:14;;;;;;;13.23;5.45;;;;;;;8.67;100.00;96367.09;5019597;28;20052;-66
2022/04/13 02:27:40;;;;;;;8.45;5.50;;;;;;;8.65;100.00;96374.84;5042062;28;20037;-66
2022/04/13 02:30:06;;;;;;;8.88;5.60;;;;;;;8.76;100.00;96364.91;5036575;28;20440;-68
2022/04/13 02:32:32;;;;;;;14.15;5.20;;;;;;;8.83;100.00;96366.19;5041373;28;20489;-65
2022/04/13 02:34:57;;;;;;;7.45;5.10;;;;;;;8.84;100.00;96365.84;5040858;28;20055;-68
2022/04/13 02:37:23;;;;;;;8.27;6.05;;;;;;;8.85;100.00;96363.91;5034829;28;20045;-65
2022/04/13 02:39:48;;;;;;;8.85;5.53;;;;;;;8.85;100.00;96364.69;5039758;28;20076;-67
2022/04/13 02:42:15;;;;;;;13.90;5.75;;;;;;;8.71;100.00;96369.88;5017451;28;20055;-67
2022/04/13 02:44:44;;;;;;;10.00;5.78;;;;;;;8.40;100.00;96369.66;5038973;28;20075;-67
2022/04/13 02:47:12;;;;;;;12.03;6.13;;;;;;;8.32;100.00;96367.97;5028525;28;20051;-67
2022/04/13 02:49:37;;;;;;;10.65;6.60;;;;;;;8.41;100.00;96370.47;5040331;28;20110;-66
2022/04/13 02:52:03;;;;;;;8.75;5.80;;;;;;;8.60;100.00;96373.19;5038193;28;20032;-68
2022/04/13 02:54:29;;;;;;;8.35;5.13;;;;;;;8.67;100.00;96377.22;5023235;28;20056;-65
2022/04/13 02:56:55;;;;;;;9.30;5.50;;;;;;;8.61;100.00;96376.72;5029664;28;20102;-67
2022/04/13 02:59:20;;;;;;;9.43;5.63;;;;;;;8.56;100.00;96379.75;5035624;28;20049;-65
2022/04/13 03:01:46;;;;;;;10.95;5.18;;;;;;;8.52;100.00;96381.63;5051854;28;20048;-68
2022/04/13 03:04:16;;;;;;;15.10;6.45;;;;;;;8.72;100.00;96379.66;5033900;28;20065;-65
2022/04/13 03:06:41;;;;;;;10.73;5.60;;;;;;;8.68;100.00;96382.31;5031200;28;20041;-64
2022/04/13 03:09:07;;;;;;;10.07;5.30;;;;;;;8.58;100.00;96374.72;5037377;28;20045;-68
2022/04/13 03:11:32;;;;;;;11.80;6.03;;;;;;;8.46;100.00;96380.31;5038210;28;20045;-65
2022/04/13 03:13:58;;;;;;;12.23;6.15;;;;;;;8.32;100.00;96373.44;5046674;28;20041;-66
2022/04/13 03:16:23;;;;;;;8.70;5.68;;;;;;;8.33;100.00;96376.94;5032984;28;20049;-65
2022/04/13 03:18:48;;;;;;;9.45;6.10;;;;;;;8.18;100.00;96379.38;5039092;28;20135;-67
2022/04/13 03:21:14;;;;;;;11.18;5.78;;;;;;;8.28;100.00;96388.13;5031504;28;20048;-66
2022/04/13 03:23:40;;;;;;;12.23;5.45;;;;;;;8.48;100.00;96397.94;5038303;28;20048;-65
2022/04/13 03:26:05;;;;;;;10.00;5.72;;;;;;;8.43;100.00;96384.56;5026321;28;20040;-66
2022/04/13 03:28:31;;;;;;;13.52;5.50;;;;;;;8.62;100.00;96394.69;5021765;28;20051;-68
2022/04/13 03:30:56;;;;;;;13.05;6.70;;;;;;;8.79;100.00;96401.63;5051336;23;20148;-67
2022/04/13 03:33:22;;;;;;;13.50;6.72;;;;;;;8.82;100.00;96398.16;5004197;28;20053;-65
2022/04/13 03:35:48;;;;;;;20.25;6.72;;;;;;;8.94;100.00;96391.75;5026768;28;20047;-65
2022/04/13 03:38:13;;;;;;;16.60;6.50;;;;;;;8.79;100.00;96398.91;5029312;28;20041;-65
2022/04/13 03:40:38;;;;;;;7.20;5.40;;;;;;;8.53;100.00;96388.66;5018544;28;20128;-66
2022/04/13 03:43:04;;;;;;;11.50;5.68;;;;;;;8.37;100.00;96385.97;5019664;28;20053;-66
2022/04/13 03:45:30;;;;;;;9.27;6.30;;;;;;;8.31;100.00;96379.25;5025532;28;20069;-68
2022/04/13 03:47:55;;;;;;;11.77;5.82;;;;;;;8.35;100.00;96380.09;5033084;28;20041;-68
2022/04/13 03:50:20;;;;;;;10.55;6.13;;;;;;;8.38;100.00;96384.84;5028955;28;20049;-65
2022/04/13 03:52:46;;;;;;;12.68;7.03;;;;;;;8.44;100.00;96386.16;5031249;28;20653;-67
2022/04/13 03:55:12;;;;;;;10.75;7.13;;;;;;;8.42;100.00;96391.97;5029957;28;20400;-68
2022/04/13 03:57:38;;;;;;;10.95;5.88;;;;;;;8.30;100.00;96392.09;5013234;28;20140;-68
2022/04/13 04:00:05;;;;;;;12.18;6.60;;;;;;;8.19;100.00;96394.59;5025617;28;20053;-69
2022/04/13 04:02:30;;;;;;;14.25;8.02;;;;;;;8.18;100.00;96398.47;5027431;28;20111;-68
2022/04/13 04:04:56;;;;;;;17.50;8.02;;;;;;;8.23;100.00;96390.00;5019927;28;20037;-68
2022/04/13 04:07:21;;;;;;;10.88;7.60;;;;;;;8.24;100.00;96391.56;4995678;28;20895;-67
2022/04/13 04:09:47;;;;;;;12.02;6.68;;;;;;;8.25;100.00;96406.03;5002417;28;20045;-68
2022/04/13 04:12:12;;;;;;;12.98;6.60;;;;;;;8.34;100.00;96400.34;5007562;28;20067;-68
2022/04/13 04:14:37;;;;;;;13.52;7.43;;;;;;;8.41;100.00;96404.00;5042010;28;20048;-67
2022/04/13 04:17:03;;;;;;;13.57;8.13;;;;;;;8.34;100.00;96400.34;5027313;28;20397;-67
2022/04/13 04:19:28;;;;;;;16.17;7.20;;;;;;;8.03;100.00;96402.03;5018174;28;20154;-67
2022/04/13 04:21:55;;;;;;;13.93;7.03;;;;;;;7.87;100.00;96404.84;5035253;28;20106;-67
2022/04/13 04:24:21;;;;;;;12.70;6.90;;;;;;;7.63;100.00;96405.84;5026989;28;20124;-67
2022/04/13 04:26:46;;;;;;;13.98;7.18;;;;;;;7.57;100.00;96401.81;5034897;28;20047;-68
2022/04/13 04:29:12;;;;;;;11.10;6.75;;;;;;;7.47;100.00;96408.56;5038790;28;20041;-67
2022/04/13 04:31:56;;;;;;;11.18;6.57;;;;;;;7.43;100.00;96405.75;5014651;28;20137;-67
2022/04/13 04:34:23;;;;;;;20.05;10.90;;;;;;;7.44;100.00;96412.81;5035483;28;20075;-67
2022/04/13 04:36:49;;;;;;;11.95;6.45;;;;;;;7.25;100.00;96415.44;5024488;28;20636;-66
2022/04/13 04:39:15;;;;;;;13.07;7.50;;;;;;;6.99;100.00;96407.81;5026683;28;20065;-68
2022/04/13 04:41:40;;;;;;;12.23;7.70;;;;;;;6.72;100.00;96414.88;5030197;28;20797;-68
2022/04/13 04:44:08;;;;;;;12.02;6.85;;;;;;;6.50;100.00;96415.09;5032613;28;20048;-67
2022/04/13 04:46:34;;;;;;;15.77;7.75;;;;;;;6.44;100.00;96412.97;5020946;28;20056;-67
2022/04/13 04:48:59;;;;;;;16.90;7.78;;;;;;;6.48;100.00;96417.38;5034530;28;20417;-67
2022/04/13 04:51:25;;;;;;;13.80;7.10;;;;;;;6.58;100.00;96421.50;5026498;28;20327;-67
2022/04/13 04:53:50;;;;;;;14.45;7.50;;;;;;;6.75;100.00;96420.41;5037923;28;20115;-67
2022/04/13 04:56:16;;;;;;;14.77;7.32;;;;;;;6.79;100.00;96429.47;5023752;28;20049;-68
2022/04/13 04:58:41;;;;;;;11.32;7.75;;;;;;;6.73;100.00;96425.41;5004824;28;20112;-69
2022/04/13 05:01:09;;;;;;;16.25;7.63;;;;;;;6.82;100.00;96431.47;4998918;28;20045;-66
2022/04/13 05:03:35;;;;;;;14.77;8.23;;;;;;;6.93;100.00;96429.03;4999466;28;20055;-67
2022/04/13 05:06:00;;;;;;;14.20;7.45;;;;;;;6.86;100.00;96429.66;5040971;28;20493;-67
2022/04/13 05:08:25;;;;;;;11.82;8.00;;;;;;;6.86;100.00;96426.94;5040276;28;20045;-68
2022/04/13 05:10:51;;;;;;;13.23;7.68;;;;;;;6.94;100.00;96432.56;5015916;28;20045;-65
2022/04/13 05:13:17;;;;;;;15.40;7.95;;;;;;;7.04;100.00;96430.13;5005749;28;20052;-67
2022/04/13 05:15:43;;;;;;;11.55;6.70;;;;;;;7.11;100.00;96432.22;5024647;28;20041;-66
2022/04/13 05:18:08;;;;;;;8.55;6.40;;;;;;;7.36;100.00;96432.06;5028164;28;20434;-66
2022/04/13 05:20:34;;;;;;;10.55;6.75;;;;;;;7.92;100.00;96431.00;5019393;28;20042;-65
2022/04/13 05:22:59;;;;;;;12.05;6.22;;;;;;;8.30;100.00;96435.75;5037372;28;20103;-66
2022/04/13 05:25:25;;;;;;;11.77;5.93;;;;;;;8.31;100.00;96428.34;5008642;28;20041;-66
2022/04/13 05:27:50;;;;;;;12.45;5.97;;;;;;;8.70;100.00;96423.72;5036482;28;20128;-65
2022/04/13 05:30:15;;;;;;;11.95;5.65;;;;;;;9.03;100.00;96433.28;5011047;28;20124;-66
2022/04/13 05:32:49;;;;;;;10.60;5.07;;;;;;;9.51;100.00;96425.50;5034810;28;20041;-66
2022/04/13 05:35:15;;;;;;;9.10;5.28;;;;;;;10.04;100.00;96430.19;5028782;28;20060;-65
2022/04/13 05:37:41;;;;;;;7.85;4.93;;;;;;;10.71;100.00;96437.75;5020296;28;20141;-65
2022/04/13 05:40:07;;;;;;;18.70;10.20;;;;;;;12.04;95.77;96432.66;5013708;28;20128;-66
2022/04/13 05:42:32;;;;;;;23.35;12.55;;;;;;;13.44;84.84;96443.41;5014456;28;20115;-66
2022/04/13 05:44:58;;;;;;;13.25;6.88;;;;;;;14.62;76.95;96450.75;5040220;28;20136;-66
2022/04/13 05:47:24;;;;;;;9.65;5.57;;;;;;;15.45;70.04;96442.88;5023414;28;20470;-66
2022/04/13 05:49:49;;;;;;;14.95;5.35;;;;;;;15.78;67.07;96449.72;5040199;28;20103;-66
2022/04/13 05:52:15;;;;;;;8.05;4.32;;;;;;;16.39;63.67;96448.38;5026654;28;20056;-67
2022/04/13 05:54:41;;;;;;;17.52;6.28;;;;;;;16.48;64.26;96447.91;4990658;28;20064;-67
2022/04/13 05:57:07;;;;;;;14.13;6.85;;;;;;;16.81;60.40;96452.63;5026973;28;20033;-67
2022/04/13 05:59:33;;;;;;;15.00;6.32;;;;;;;17.25;59.91;96460.41;5041807;28;20045;-66
2022/04/13 06:01:58;;;;;;;11.07;4.50;;;;;;;17.19;60.60;96460.09;5034922;28;20132;-67
2022/04/13 06:04:24;;;;;;;8.07;4.10;;;;;;;17.91;57.62;96464.59;5015737;28;20536;-67
2022/04/13 06:06:50;;;;;;;9.60;4.40;;;;;;;18.83;54.43;96466.13;5021523;28;20040;-68
2022/04/13 06:09:15;;;;;;;13.07;4.75;;;;;;;18.48;53.37;96471.13;5026521;28;20063;-67
2022/04/13 06:11:40;;;;;;;11.65;3.92;;;;;;;19.21;50.38;96472.09;5028550;28;20461;-67
2022/04/13 06:14:06;;;;;;;6.57;4.40;;;;;;;18.99;52.33;96474.50;5038200;28;20037;-68
2022/04/13 06:16:31;;;;;;;13.63;5.25;;;;;;;18.33;53.46;96474.16;5030552;28;20048;-67
2022/04/13 06:18:57;;;;;;;11.52;4.25;;;;;;;18.89;52.03;96478.31;5036013;28;20131;-67
2022/04/13 06:21:22;;;;;;;6.40;3.90;;;;;;;19.69;50.57;96483.72;5027631;28;20675;-68
2022/04/13 06:23:48;;;;;;;15.05;8.25;;;;;;;21.06;46.43;96480.25;5027400;28;20060;-67
2022/04/13 06:26:13;;;;;;;13.95;5.53;;;;;;;21.16;44.99;96485.53;5026442;28;20068;-67
2022/04/13 06:28:38;;;;;;;6.97;3.90;;;;;;;20.94;45.37;96487.34;5021064;28;20752;-67
2022/04/13 06:31:04;;;;;;;7.10;3.80;;;;;;;21.50;44.83;96491.72;5001684;28;20049;-69
2022/04/13 06:33:29;;;;;;;10.75;4.35;;;;;;;21.67;43.90;96489.63;5019508;28;20405;-67
2022/04/13 06:35:55;;;;;;;10.00;4.30;;;;;;;22.74;41.04;96493.69;5015595;28;20055;-67
2022/04/13 06:38:20;;;;;;;6.68;4.30;;;;;;;23.30;38.65;96494.91;5034197;28;20045;-68
2022/04/13 06:40:45;;;;;;;7.80;4.78;;;;;;;23.48;37.38;96491.44;5028838;28;20041;-68
2022/04/13 06:43:11;;;;;;;8.05;4.00;;;;;;;23.53;36.74;96504.03;5014803;28;20456;-67
2022/04/13 06:45:36;;;;;;;8.25;5.00;;;;;;;23.35;37.68;96499.13;5041302;28;20127;-67
2022/04/13 06:48:02;;;;;;;9.48;4.50;;;;;;;23.65;37.32;96501.13;5024090;28;20040;-67
2022/04/13 06:50:28;;;;;;;8.13;4.32;;;;;;;23.67;37.52;96492.28;5016612;28;20081;-67
2022/04/13 06:52:54;;;;;;;8.85;4.82;;;;;;;22.79;39.09;96512.66;5026121;28;20069;-67
2022/04/13 06:55:19;;;;;;;9.95;5.35;;;;;;;22.80;39.57;96502.28;5022577;28;20046;-67
2022/04/13 06:57:45;;;;;;;9.50;4.43;;;;;;;22.83;40.02;96502.16;5034789;28;20079;-67
2022/04/13 07:00:12;;;;;;;9.95;5.80;;;;;;;21.58;42.72;96504.22;5036638;28;20399;-67
2022/04/13 07:02:38;;;;;;;16.17;12.25;;;;;;;20.18;46.52;96502.44;5028397;28;20041;-67
2022/04/13 07:05:04;;;;;;;9.15;5.85;;;;;;;19.70;45.93;96504.75;4992368;28;20053;-67
2022/04/13 07:07:30;;;;;;;10.90;6.30;;;;;;;20.95;43.43;96503.63;5024815;28;20057;-66
2022/04/13 07:09:56;;;;;;;9.57;4.75;;;;;;;21.85;40.97;96509.34;5020277;28;20037;-67
2022/04/13 07:12:21;;;;;;;7.93;5.53;;;;;;;19.32;47.50;96510.72;5006463;28;20634;-68
2022/04/13 07:14:47;;;;;;;8.13;4.75;;;;;;;21.28;44.16;96503.47;5025575;28;20104;-67
2022/04/13 07:17:12;;;;;;;10.88;4.50;;;;;;;22.47;41.83;96499.81;5014311;28;20103;-69
2022/04/13 07:19:38;;;;;;;13.32;4.50;;;;;;;23.31;40.05;96502.03;5027368;28;20090;-68
2022/04/13 07:22:05;;;;;;;11.30;4.30;;;;;;;24.10;38.57;96501.81;5005440;28;20077;-69
2022/04/13 07:24:31;;;;;;;9.80;4.53;;;;;;;23.43;38.10;96511.59;5009005;28;20045;-69
2022/04/13 07:26:56;;;;;;;9.00;5.10;;;;;;;23.90;37.49;96507.03;5035184;28;20049;-68
2022/04/13 07:29:22;;;;;;;6.53;4.53;;;;;;;22.43;39.10;96516.66;5001775;28;20460;-66
2022/04/13 07:31:48;;;;;;;6.78;4.28;;;;;;;23.15;38.68;96516.22;5015067;28;20049;-66
2022/04/13 07:34:13;;;;;;;9.15;4.50;;;;;;;23.02;39.09;96519.81;5014678;28;20033;-67
2022/04/13 07:36:39;;;;;;;11.45;4.85;;;;;;;22.93;39.38;96507.81;5018678;28;20121;-67
2022/04/13 07:39:04;;;;;;;6.57;4.50;;;;;;;23.99;36.71;96507.06;5003552;28;20049;-68
2022/04/13 07:41:30;;;;;;;8.10;4.25;;;;;;;25.24;33.98;96515.00;5018792;28;20171;-67
2022/04/13 07:43:57;;;;;;;8.07;4.40;;;;;;;25.54;33.70;96515.28;5019366;28;20041;-67
2022/04/13 07:46:27;;;;;;;7.18;4.70;;;;;;;22.61;38.26;96524.44;5010067;28;20100;-68
2022/04/13 07:48:53;;;;;;;9.68;5.03;;;;;;;20.68;42.81;96522.66;5017433;28;20044;-68
2022/04/13 07:51:19;;;;;;;11.73;5.35;;;;;;;18.98;48.22;96525.69;5011783;28;20536;-68
2022/04/13 07:53:44;;;;;;;8.68;4.75;;;;;;;20.82;43.34;96522.28;5018909;28;20155;-68
2022/04/13 07:56:09;;;;;;;9.50;4.95;;;;;;;22.65;40.22;96522.31;5012613;28;20787;-68
2022/04/13 07:58:35;;;;;;;8.13;4.30;;;;;;;24.26;36.87;96520.34;5019750;28;20041;-69
2022/04/13 08:01:00;;;;;;;16.08;4.88;;;;;;;25.29;34.62;96510.81;5015653;28;20049;-68
2022/04/13 08:03:26;;;;;;;10.43;4.05;;;;;;;26.31;33.35;96516.88;5014977;28;20116;-67
2022/04/13 08:05:51;;;;;;;8.50;4.60;;;;;;;23.88;37.36;96521.47;5019244;28;20482;-68
2022/04/13 08:08:17;;;;;;;9.85;5.63;;;;;;;25.07;34.51;96520.16;5013955;28;20038;-67
2022/04/13 08:10:43;;;;;;;10.50;4.45;;;;;;;25.53;33.87;96524.91;5021399;28;20127;-66
2022/04/13 08:13:08;;;;;;;6.88;4.70;;;;;;;23.70;37.13;96530.53;5024862;28;20493;-67
2022/04/13 08:15:34;;;;;;;6.75;4.97;;;;;;;23.32;37.71;96525.16;5038151;28;20051;-67
2022/04/13 08:17:59;;;;;;;6.53;5.00;;;;;;;21.62;40.74;96523.63;5039107;28;20128;-66
2022/04/13 08:20:24;;;;;;;7.72;4.97;;;;;;;23.37;38.28;96522.59;5032174;28;20300;-66
2022/04/13 08:22:50;;;;;;;7.35;4.65;;;;;;;24.85;35.96;96522.31;5020842;28;20045;-67
2022/04/13 08:25:15;;;;;;;9.93;6.25;;;;;;;20.13;44.60;96514.06;5032891;28;20432;-66
2022/04/13 08:27:41;;;;;;;7.50;4.93;;;;;;;20.01;46.27;96523.91;5037996;28;20075;-67
2022/04/13 08:30:07;;;;;;;9.32;5.55;;;;;;;20.72;44.64;96520.56;5032954;28;20036;-67
2022/04/13 08:32:32;;;;;;;11.73;5.60;;;;;;;19.67;48.07;96520.25;5037393;28;20223;-67
2022/04/13 08:34:58;;;;;;;8.70;6.10;;;;;;;22.70;41.26;96516.13;5038038;28;20041;-67
2022/04/13 08:37:27;;;;;;;10.98;5.28;;;;;;;23.19;40.49;96517.66;5031318;28;20144;-67
2022/04/13 08:39:52;;;;;;;7.97;4.95;;;;;;;24.42;38.50;96522.88;5038468;28;20049;-67
2022/04/13 08:42:47;;;;;;;12.05;5.88;;;;;;;23.54;39.46;96528.72;4993281;28;20045;-68
2022/04/13 08:45:25;;;;;;;12.95;6.40;;;;;;;23.20;39.89;96529.59;5017689;28;20513;-68
2022/04/13 08:47:56;;;;;;;8.20;5.90;;;;;;;22.82;41.07;96530.53;4999107;28;20050;-68
2022/04/13 08:50:26;;;;;;;10.55;6.40;;;;;;;21.84;43.31;96526.53;4993609;28;20128;-68
2022/04/13 08:52:57;;;;;;;8.23;5.68;;;;;;;21.58;43.66;96530.06;4998718;28;20092;-68
2022/04/13 08:55:24;;;;;;;9.90;6.38;;;;;;;21.07;44.53;96529.94;4993521;28;20075;-68
2022/04/13 08:57:56;;;;;;;9.25;5.95;;;;;;;21.47;44.91;96529.63;4999270;28;20053;-68
2022/04/13 09:00:27;;;;;;;12.23;6.40;;;;;;;21.70;43.63;96533.34;4994620;28;20242;-69
2022/04/13 09:03:14;;;;;;;11.88;6.05;;;;;;;21.98;43.71;96531.66;5000169;28;20053;-68
2022/04/13 09:05:42;;;;;;;15.55;6.10;;;;;;;22.02;43.03;96535.13;5001522;28;20128;-68
2022/04/13 09:08:45;;;;;;;12.95;6.40;;;;;;;22.69;41.28;96536.16;4997242;28;20068;-68
2022/04/13 09:11:13;;;;;;;12.18;6.50;;;;;;;22.75;41.42;96533.56;4994514;28;20038;-67
2022/04/13 09:13:39;;;;;;;9.77;6.03;;;;;;;21.39;42.99;96534.59;4995081;28;20037;-68
2022/04/13 09:16:05;;;;;;;9.38;6.20;;;;;;;22.45;42.75;96532.97;4979347;28;20107;-69
2022/04/13 09:18:31;;;;;;;9.35;5.95;;;;;;;22.10;42.67;96530.88;5001762;28;20041;-68
2022/04/13 09:20:58;;;;;;;8.77;5.90;;;;;;;22.95;40.15;96531.25;5002472;28;20129;-67
2022/04/13 09:23:24;;;;;;;8.90;5.90;;;;;;;22.18;41.72;96530.66;4996640;28;20068;-67
2022/04/13 09:25:51;;;;;;;12.15;6.50;;;;;;;22.73;41.25;96531.22;5001937;28;20100;-67
2022/04/13 09:28:17;;;;;;;12.07;5.50;;;;;;;23.76;39.95;96528.69;4982797;28;20674;-68
2022/04/13 09:30:43;;;;;;;11.35;6.00;;;;;;;23.90;38.79;96529.41;5005947;28;20050;-68
2022/04/13 09:33:08;;;;;;;9.20;6.07;;;;;;;24.15;38.41;96531.22;4999114;28;20046;-67
2022/04/13 09:35:35;;;;;;;10.20;5.30;;;;;;;23.81;39.17;96519.72;5001794;28;20895;-68
2022/04/13 09:38:06;;;;;;;9.02;5.93;;;;;;;23.16;40.14;96521.34;5002267;28;20045;-67
2022/04/13 09:40:37;;;;;;;9.52;6.47;;;;;;;23.83;38.81;96524.88;4987009;28;20053;-68
2022/04/13 09:43:09;;;;;;;13.27;6.03;;;;;;;23.20;40.45;96524.03;5001103;28;20053;-71
2022/04/13 09:45:42;;;;;;;8.20;6.30;;;;;;;22.57;41.80;96523.03;5016914;28;20060;-67
2022/04/13 09:48:09;;;;;;;12.02;6.55;;;;;;;22.78;41.82;96527.88;5006558;28;20038;-68
2022/04/13 09:50:35;;;;;;;15.07;7.18;;;;;;;22.83;41.22;96520.91;5003534;28;20046;-68
2022/04/13 09:53:05;;;;;;;13.68;6.90;;;;;;;22.52;42.51;96519.53;5002363;28;20044;-68
2022/04/13 09:55:43;;;;;;;12.70;7.93;;;;;;;20.23;47.07;96519.38;5000982;28;20104;-67
2022/04/13 09:58:11;;;;;;;10.80;7.60;;;;;;;20.03;48.77;96516.69;4978893;28;20068;-67
2022/04/13 10:00:37;;;;;;;18.23;8.13;;;;;;;19.85;48.87;96522.66;5002193;28;20045;-66
2022/04/13 10:03:16;;;;;;;11.95;6.50;;;;;;;20.22;48.29;96511.47;5000562;28;20490;-70
2022/04/13 10:05:47;;;;;;;11.93;6.68;;;;;;;20.68;46.18;96515.09;5001033;28;20050;-67
2022/04/13 10:08:14;;;;;;;13.88;7.32;;;;;;;21.40;45.02;96515.88;4995983;28;20042;-68
2022/04/13 10:11:00;;;;;;;12.75;7.28;;;;;;;21.12;44.38;96512.69;5005243;28;20045;-68
2022/04/13 10:13:34;;;;;;;14.07;7.57;;;;;;;21.90;42.37;96511.59;5016533;28;20134;-70
2022/04/13 10:16:08;;;;;;;10.63;6.95;;;;;;;22.33;41.43;96504.66;5008004;28;20046;-66
2022/04/13 10:18:56;;;;;;;9.45;6.53;;;;;;;23.55;39.36;96498.75;5014497;28;20121;-68
2022/04/13 10:21:40;;;;;;;11.73;6.57;;;;;;;23.88;38.15;96503.91;4996084;28;20034;-68
2022/04/13 10:24:07;;;;;;;12.13;6.95;;;;;;;25.04;36.53;96497.88;4996170;28;20045;-69
2022/04/13 10:26:32;;;;;;;12.32;6.32;;;;;;;24.52;37.26;96495.66;5000566;28;20042;-67
2022/04/13 10:28:58;;;;;;;10.35;6.65;;;;;;;24.30;37.54;96487.41;5001198;28;20088;-68
2022/04/13 10:31:23;;;;;;;9.60;5.75;;;;;;;23.12;40.47;96494.78;4995270;28;20046;-68
2022/04/13 10:33:52;;;;;;;11.68;6.10;;;;;;;23.89;39.05;96488.69;5001071;28;20116;-67
2022/04/13 10:36:18;;;;;;;9.93;6.38;;;;;;;25.27;37.31;96486.06;4993790;28;20088;-68
2022/04/13 10:38:44;;;;;;;10.77;5.55;;;;;;;26.26;34.90;96481.78;5000763;28;20046;-69
2022/04/13 10:41:21;;;;;;;10.60;6.07;;;;;;;26.23;34.00;96476.34;4993558;28;20041;-70
2022/04/13 10:43:52;;;;;;;10.90;6.03;;;;;;;24.49;38.14;96479.03;4998655;28;20058;-68
2022/04/13 10:46:20;;;;;;;12.32;6.30;;;;;;;25.14;36.37;96475.00;4995160;28;20053;-67
2022/04/13 10:48:50;;;;;;;10.48;6.40;;;;;;;25.59;35.63;96471.78;5000519;28;20089;-69
2022/04/13 10:51:22;;;;;;;10.05;6.88;;;;;;;24.13;37.43;96469.31;4977216;28;20041;-68
2022/04/13 10:54:01;;;;;;;9.80;5.75;;;;;;;24.18;39.44;96461.13;5000937;28;20399;-67
2022/04/13 10:56:30;;;;;;;13.73;7.07;;;;;;;25.10;36.66;96462.38;4977007;28;20141;-67
2022/04/13 10:59:15;;;;;;;12.23;7.32;;;;;;;25.10;36.78;96457.56;5000475;28;20049;-67
2022/04/13 11:01:55;;;;;;;12.88;6.70;;;;;;;24.35;38.41;96456.00;5000074;28;20054;-67
2022/04/13 11:04:22;;;;;;;13.20;7.60;;;;;;;24.08;38.83;96464.34;4993399;28;20042;-68
2022/04/13 11:06:48;;;;;;;16.17;7.60;;;;;;;23.27;40.38;96462.28;4997973;28;20140;-67
2022/04/13 11:09:21;;;;;;;13.75;7.80;;;;;;;22.94;40.39;96462.69;5010986;28;20048;-67
2022/04/13 11:11:48;;;;;;;15.98;6.78;;;;;;;22.71;41.44;96452.75;5019250;28;20069;-67
2022/04/13 11:14:18;;;;;;;12.90;7.22;;;;;;;22.59;41.95;96454.34;5021552;28;20037;-69
2022/04/13 11:16:43;;;;;;;15.80;7.40;;;;;;;22.45;42.22;96450.03;5020169;28;20083;-69
2022/04/13 11:19:09;;;;;;;11.57;7.38;;;;;;;21.48;44.06;96447.63;5015898;28;20045;-69
2022/04/13 11:21:54;;;;;;;12.93;7.47;;;;;;;22.15;44.19;96445.88;5020408;28;20147;-68
2022/04/13 11:24:33;;;;;;;13.55;6.63;;;;;;;21.95;44.50;96446.91;5003886;28;20311;-67
2022/04/13 11:26:58;;;;;;;13.27;6.63;;;;;;;21.94;44.33;96439.00;5019142;28;20045;-67
2022/04/13 11:29:33;;;;;;;11.52;7.13;;;;;;;22.00;43.64;96444.78;5004053;28;20801;-69